Terminal Aerodrome Forecast
Issued by NWS Jackson, KY

Home | Current Version | Previous Version | Text Only | Print | Product List | Glossary On
Versions: 1 2 3 4 5 6 7 8 9 10 11 12 13 14 15 16 17 18 19 20 21
137
FTUS43 KJKL 140531
TAFLOZ
TAF
KLOZ 140531Z 1406/1506 00000KT 2SM BR OVC004
     FM141700 26003KT 3SM BR OVC006
     FM142000 29003KT 4SM -RA BR OVC007
     FM150000 34004KT 3SM -DZ BR OVC007=

USA.gov is the U.S. government's official web portal to all federal, state and local government web resources and services.